Time;durP1;ratioP1;P1;durP2;ratioP2;P2;SDS_P1;SDS_P2;PMS_P1;PMS_P2;Temp;Humidity;BMP_temperature;BMP_pressure;BME280_temperature;BME280_humidity;BME280_pressure;Samples;Min_cycle;Max_cycle;Signal;HPM_P1;HPM_P2
2023/09/20 00:00:54;;;;;;;;;;;;;;;18.02;100.00;95415.88;5115999;28;1111;-56
2023/09/20 00:03:39;;;;;;;;;;;;;;;18.12;100.00;95410.91;5116121;28;2032;-56
2023/09/20 00:06:07;;;;;;;;;;;;;;;18.12;100.00;95419.03;5116143;28;1027;-56
2023/09/20 00:08:34;;;;;;;;;;;;;;;18.14;100.00;95408.84;5115964;28;976;-56
2023/09/20 00:11:01;;;;;;;;;;;;;;;18.24;100.00;95407.63;5115543;28;1051;-56
2023/09/20 00:13:27;;;;;;;;;;;;;;;18.32;100.00;95405.56;5115976;28;1024;-56
2023/09/20 00:15:55;;;;;;;;;;;;;;;18.31;100.00;95409.31;5115835;28;1043;-56
2023/09/20 00:18:24;;;;;;;;;;;;;;;18.28;100.00;95411.59;5115540;28;1051;-56
2023/09/20 00:20:51;;;;;;;;;;;;;;;18.21;100.00;95413.44;5115839;28;1004;-56
2023/09/20 00:23:21;;;;;;;;;;;;;;;18.11;100.00;95409.25;5115613;28;996;-56
2023/09/20 00:25:49;;;;;;;;;;;;;;;18.02;100.00;95412.31;5135127;27;2548;-56
2023/09/20 00:28:17;;;;;;;;;;;;;;;18.02;100.00;95407.78;5135871;27;1146;-56
2023/09/20 00:30:45;;;;;;;;;;;;;;;18.05;100.00;95399.22;5136190;27;957;-55
2023/09/20 00:33:14;;;;;;;;;;;;;;;18.06;100.00;95414.44;5136058;27;1090;-56
2023/09/20 00:35:40;;;;;;;;;;;;;;;18.26;100.00;95405.56;5136166;27;1029;-56
2023/09/20 00:38:07;;;;;;;;;;;;;;;18.52;98.96;95396.69;5136079;27;1054;-56
2023/09/20 00:40:35;;;;;;;;;;;;;;;18.54;97.91;95398.16;5135771;27;1035;-56
2023/09/20 00:43:04;;;;;;;;;;;;;;;18.33;96.81;95401.84;5135518;27;1202;-56
2023/09/20 00:45:30;;;;;;;;;;;;;;;18.32;98.05;95399.31;5135683;27;1909;-56
2023/09/20 00:47:57;;;;;;;;;;;;;;;18.12;98.00;95404.69;5135864;27;1063;-56
2023/09/20 00:50:27;;;;;;;;;;;;;;;17.87;99.45;95404.34;5135731;27;1039;-56
2023/09/20 00:52:54;;;;;;;;;;;;;;;17.59;100.00;95413.31;5135796;27;957;-56
2023/09/20 00:55:31;;;;;;;;;;;;;;;17.51;100.00;95406.19;5135346;27;1856;-56
2023/09/20 00:58:04;;;;;;;;;;;;;;;17.60;100.00;95408.75;5135261;27;1219;-56
2023/09/20 01:00:32;;;;;;;;;;;;;;;17.49;100.00;95402.88;5135628;27;973;-56
2023/09/20 01:03:00;;;;;;;;;;;;;;;17.44;100.00;95401.78;5135620;27;1046;-56
2023/09/20 01:05:26;;;;;;;;;;;;;;;17.10;100.00;95403.41;5135157;27;1986;-56
2023/09/20 01:07:56;;;;;;;;;;;;;;;16.96;100.00;95399.75;5135325;27;917;-56
2023/09/20 01:10:24;;;;;;;;;;;;;;;17.08;100.00;95397.38;5135115;27;977;-56
2023/09/20 01:12:51;;;;;;;;;;;;;;;17.24;100.00;95399.75;5135413;27;1070;-56
2023/09/20 01:15:17;;;;;;;;;;;;;;;17.20;100.00;95401.19;5135283;27;1010;-57
2023/09/20 01:17:44;;;;;;;;;;;;;;;17.28;100.00;95400.19;5135319;27;1059;-57
2023/09/20 01:20:12;;;;;;;;;;;;;;;17.37;100.00;95407.13;5135202;27;1036;-57
2023/09/20 01:22:38;;;;;;;;;;;;;;;17.55;100.00;95414.75;5134382;27;1015;-57
2023/09/20 01:25:09;;;;;;;;;;;;;;;17.08;100.00;95405.47;5134836;27;1992;-57
2023/09/20 01:27:35;;;;;;;;;;;;;;;16.55;100.00;95406.59;5133947;27;964;-57
2023/09/20 01:30:02;;;;;;;;;;;;;;;16.59;100.00;95401.66;5134830;27;1088;-57
2023/09/20 01:32:29;;;;;;;;;;;;;;;16.56;100.00;95407.44;5134893;27;972;-57
2023/09/20 01:34:56;;;;;;;;;;;;;;;16.68;100.00;95405.91;5134987;27;1066;-57
2023/09/20 01:37:22;;;;;;;;;;;;;;;16.90;100.00;95403.22;5134939;27;1014;-56
2023/09/20 01:39:48;;;;;;;;;;;;;;;16.83;100.00;95411.28;5134591;27;1095;-56
2023/09/20 01:42:17;;;;;;;;;;;;;;;16.78;100.00;95421.78;5134767;27;1134;-58
2023/09/20 01:44:43;;;;;;;;;;;;;;;16.73;100.00;95425.06;5134889;27;1980;-57
2023/09/20 01:47:08;;;;;;;;;;;;;;;16.57;100.00;95425.31;5134704;27;961;-57
2023/09/20 01:49:34;;;;;;;;;;;;;;;16.55;100.00;95417.41;5134433;27;1048;-57
2023/09/20 01:52:01;;;;;;;;;;;;;;;16.69;100.00;95425.63;5134587;27;1122;-57
2023/09/20 01:54:30;;;;;;;;;;;;;;;16.74;100.00;95434.00;5134375;27;876;-57
2023/09/20 01:56:56;;;;;;;;;;;;;;;16.72;100.00;95423.38;5134729;27;972;-57
2023/09/20 01:59:22;;;;;;;;;;;;;;;16.66;100.00;95429.56;5134264;27;1231;-57
2023/09/20 02:01:48;;;;;;;;;;;;;;;16.54;100.00;95423.84;5134399;27;1043;-57
2023/09/20 02:04:20;;;;;;;;;;;;;;;16.44;100.00;95422.47;5134256;28;1991;-57
2023/09/20 02:06:46;;;;;;;;;;;;;;;16.37;100.00;95422.38;5129601;27;2490;-58
2023/09/20 02:09:13;;;;;;;;;;;;;;;16.36;100.00;95423.44;5112394;28;1028;-57
2023/09/20 02:11:40;;;;;;;;;;;;;;;16.50;100.00;95414.44;5114079;28;1048;-58
2023/09/20 02:14:06;;;;;;;;;;;;;;;16.48;100.00;95424.59;5113983;28;1051;-57
2023/09/20 02:16:32;;;;;;;;;;;;;;;16.24;100.00;95430.31;5113971;28;961;-57
2023/09/20 02:18:58;;;;;;;;;;;;;;;16.18;100.00;95424.69;5113824;28;1001;-57
2023/09/20 02:21:24;;;;;;;;;;;;;;;16.09;100.00;95420.41;5113590;28;1018;-57
2023/09/20 02:23:54;;;;;;;;;;;;;;;16.15;100.00;95426.91;5113484;28;1913;-57
2023/09/20 02:26:20;;;;;;;;;;;;;;;16.15;100.00;95430.44;5113879;28;984;-56
2023/09/20 02:28:46;;;;;;;;;;;;;;;16.05;100.00;95429.06;5113894;28;957;-56
2023/09/20 02:31:12;;;;;;;;;;;;;;;16.10;100.00;95429.34;5113611;28;1082;-56
2023/09/20 02:33:38;;;;;;;;;;;;;;;16.34;100.00;95422.78;5116204;28;1044;-56
2023/09/20 02:36:05;;;;;;;;;;;;;;;16.24;100.00;95425.78;5117639;28;1055;-55
2023/09/20 02:38:31;;;;;;;;;;;;;;;16.13;100.00;95427.09;5117496;28;1027;-55
2023/09/20 02:40:58;;;;;;;;;;;;;;;16.11;100.00;95420.22;5117567;28;1087;-56
2023/09/20 02:43:24;;;;;;;;;;;;;;;16.02;100.00;95427.59;5117410;28;1099;-56
2023/09/20 02:45:50;;;;;;;;;;;;;;;15.86;100.00;95427.78;5117331;28;1909;-55
2023/09/20 02:48:17;;;;;;;;;;;;;;;15.92;100.00;95427.88;5117731;28;1103;-56
2023/09/20 02:50:44;;;;;;;;;;;;;;;15.98;100.00;95426.28;5117621;28;1039;-56
2023/09/20 02:53:10;;;;;;;;;;;;;;;16.04;100.00;95430.09;5117466;28;965;-56
2023/09/20 02:55:37;;;;;;;;;;;;;;;16.05;100.00;95435.31;5117355;28;1051;-57
2023/09/20 02:58:04;;;;;;;;;;;;;;;16.09;100.00;95424.97;5120201;27;1326;-56
2023/09/20 03:00:31;;;;;;;;;;;;;;;16.14;100.00;95436.88;5137992;27;1035;-56
2023/09/20 03:02:58;;;;;;;;;;;;;;;15.96;100.00;95428.34;5137682;27;1084;-57
2023/09/20 03:05:31;;;;;;;;;;;;;;;15.94;100.00;95435.78;5137429;27;1906;-56
2023/09/20 03:07:57;;;;;;;;;;;;;;;15.98;100.00;95429.81;5138175;27;969;-57
2023/09/20 03:10:24;;;;;;;;;;;;;;;15.98;100.00;95434.38;5137610;27;1046;-57
2023/09/20 03:12:51;;;;;;;;;;;;;;;15.96;100.00;95433.75;5137521;27;1008;-57
2023/09/20 03:15:21;;;;;;;;;;;;;;;15.92;100.00;95435.13;5137329;27;1095;-57
2023/09/20 03:17:51;;;;;;;;;;;;;;;15.72;100.00;95434.81;5137329;27;1060;-57
2023/09/20 03:20:22;;;;;;;;;;;;;;;15.68;100.00;95442.44;5137240;27;968;-57
2023/09/20 03:22:49;;;;;;;;;;;;;;;15.89;100.00;95435.50;5137295;27;1012;-56
2023/09/20 03:25:19;;;;;;;;;;;;;;;15.73;100.00;95445.47;5137110;27;2253;-57
2023/09/20 03:27:46;;;;;;;;;;;;;;;15.68;100.00;95450.53;5137331;27;999;-57
2023/09/20 03:30:13;;;;;;;;;;;;;;;15.74;100.00;95446.28;5135933;27;1040;-56
2023/09/20 03:32:42;;;;;;;;;;;;;;;15.78;100.00;95444.88;5137092;27;961;-56
2023/09/20 03:35:09;;;;;;;;;;;;;;;15.77;100.00;95452.16;5137342;27;961;-56
2023/09/20 03:37:38;;;;;;;;;;;;;;;15.83;100.00;95441.66;5137215;27;965;-56
2023/09/20 03:40:06;;;;;;;;;;;;;;;15.74;100.00;95436.31;5137012;27;905;-57
2023/09/20 03:42:33;;;;;;;;;;;;;;;15.69;100.00;95438.75;5136940;27;1075;-56
2023/09/20 03:44:59;;;;;;;;;;;;;;;15.71;100.00;95446.66;5135988;27;1902;-56
2023/09/20 03:47:28;;;;;;;;;;;;;;;15.61;100.00;95439.66;5136978;27;1036;-56
2023/09/20 03:49:53;;;;;;;;;;;;;;;15.57;100.00;95448.28;5137118;27;1028;-56
2023/09/20 03:52:19;;;;;;;;;;;;;;;15.45;100.00;95449.78;5136784;27;961;-56
2023/09/20 03:54:51;;;;;;;;;;;;;;;15.32;100.00;95451.22;5136694;27;1099;-55
2023/09/20 03:57:19;;;;;;;;;;;;;;;15.51;100.00;95451.72;5136545;27;1126;-54
2023/09/20 03:59:47;;;;;;;;;;;;;;;15.52;100.00;95448.03;5118089;27;1219;-55
2023/09/20 04:02:14;;;;;;;;;;;;;;;15.55;100.00;95451.16;5116228;28;998;-55
2023/09/20 04:04:40;;;;;;;;;;;;;;;15.49;100.00;95451.09;5116239;28;1913;-54
2023/09/20 04:07:07;;;;;;;;;;;;;;;15.46;100.00;95448.75;5115927;27;1044;-56
2023/09/20 04:09:35;;;;;;;;;;;;;;;15.38;100.00;95447.78;5116076;27;1018;-56
2023/09/20 04:12:04;;;;;;;;;;;;;;;15.42;100.00;95454.53;5115884;28;1018;-56
2023/09/20 04:14:31;;;;;;;;;;;;;;;15.31;100.00;95451.41;5115920;28;1041;-56
2023/09/20 04:16:57;;;;;;;;;;;;;;;15.36;100.00;95459.78;5115706;28;1055;-56
2023/09/20 04:19:24;;;;;;;;;;;;;;;15.33;100.00;95455.63;5114559;28;1044;-56
2023/09/20 04:21:50;;;;;;;;;;;;;;;15.26;100.00;95459.22;5115881;28;974;-56
2023/09/20 04:24:17;;;;;;;;;;;;;;;15.35;100.00;95464.34;5115528;28;1979;-56
2023/09/20 04:26:43;;;;;;;;;;;;;;;15.46;100.00;95471.16;5115827;28;987;-56
2023/09/20 04:29:10;;;;;;;;;;;;;;;15.53;100.00;95463.16;5115403;28;999;-56
2023/09/20 04:31:36;;;;;;;;;;;;;;;15.57;100.00;95467.97;5115637;28;1036;-56
2023/09/20 04:34:02;;;;;;;;;;;;;;;15.60;100.00;95472.19;5115595;28;961;-55
2023/09/20 04:36:28;;;;;;;;;;;;;;;15.58;100.00;95463.44;5115188;28;1169;-55
2023/09/20 04:38:55;;;;;;;;;;;;;;;15.50;100.00;95469.75;5115558;28;1021;-55
2023/09/20 04:41:21;;;;;;;;;;;;;;;15.45;100.00;95468.66;5115177;28;1035;-55
2023/09/20 04:43:48;;;;;;;;;;;;;;;15.43;100.00;95477.72;5114966;28;1918;-55
2023/09/20 04:46:14;;;;;;;;;;;;;;;15.46;100.00;95471.16;5115256;28;973;-57
2023/09/20 04:48:41;;;;;;;;;;;;;;;15.50;100.00;95469.75;5114174;28;1024;-55
2023/09/20 04:51:07;;;;;;;;;;;;;;;15.59;100.00;95475.88;5115271;28;992;-55
2023/09/20 04:53:34;;;;;;;;;;;;;;;15.59;100.00;95476.75;5115210;28;1011;-55
2023/09/20 04:56:01;;;;;;;;;;;;;;;15.60;100.00;95480.28;5115445;28;1029;-54
2023/09/20 04:58:27;;;;;;;;;;;;;;;15.69;100.00;95478.31;5121789;27;1212;-55
2023/09/20 05:00:53;;;;;;;;;;;;;;;15.94;100.00;95476.22;5135665;27;985;-55
2023/09/20 05:03:19;;;;;;;;;;;;;;;16.16;100.00;95475.28;5135549;27;1039;-55
2023/09/20 05:05:50;;;;;;;;;;;;;;;16.18;100.00;95478.63;5135423;27;1905;-55
2023/09/20 05:08:16;;;;;;;;;;;;;;;16.31;100.00;95474.41;5135556;27;1036;-55
2023/09/20 05:10:45;;;;;;;;;;;;;;;16.38;100.00;95483.44;5135794;27;1020;-56
2023/09/20 05:13:11;;;;;;;;;;;;;;;16.75;100.00;95486.94;5135023;27;1023;-55
2023/09/20 05:15:38;;;;;;;;;;;;;;;16.90;100.00;95492.34;5133922;27;1107;-55
2023/09/20 05:18:04;;;;;;;;;;;;;;;16.97;100.00;95485.97;5135271;27;1047;-55
2023/09/20 05:20:31;;;;;;;;;;;;;;;17.04;100.00;95491.47;5134871;27;933;-55
2023/09/20 05:22:58;;;;;;;;;;;;;;;17.03;100.00;95489.78;5135215;27;969;-55
2023/09/20 05:25:25;;;;;;;;;;;;;;;17.21;100.00;95486.63;5134715;27;1902;-55
2023/09/20 05:27:54;;;;;;;;;;;;;;;17.26;100.00;95491.44;5134871;27;1102;-55
2023/09/20 05:30:21;;;;;;;;;;;;;;;17.51;100.00;95497.25;5135032;27;1027;-55
2023/09/20 05:32:51;;;;;;;;;;;;;;;17.62;100.00;95493.19;5134808;27;1976;-55
2023/09/20 05:35:17;;;;;;;;;;;;;;;17.70;100.00;95501.13;5134714;27;1020;-55
2023/09/20 05:37:44;;;;;;;;;;;;;;;17.88;99.86;95506.94;5135075;27;965;-55
2023/09/20 05:40:19;;;;;;;;;;;;;;;18.01;99.22;95503.47;5134603;27;972;-56
2023/09/20 05:42:45;;;;;;;;;;;;;;;18.09;98.44;95503.31;5134785;27;1242;-56
2023/09/20 05:45:12;;;;;;;;;;;;;;;18.25;97.49;95504.88;5134426;27;1905;-56
2023/09/20 05:47:42;;;;;;;;;;;;;;;18.27;96.11;95499.25;5134747;27;1060;-56
2023/09/20 05:50:12;;;;;;;;;;;;;;;18.30;96.18;95505.09;5134891;27;969;-56
2023/09/20 05:52:43;;;;;;;;;;;;;;;18.71;94.22;95515.06;5134488;27;1122;-55
2023/09/20 05:55:16;;;;;;;;;;;;;;;19.09;91.75;95514.56;5134827;27;1053;-54
2023/09/20 05:57:42;;;;;;;;;;;;;;;19.15;91.17;95504.78;5133508;27;1227;-55
2023/09/20 06:00:18;;;;;;;;;;;;;;;19.04;91.33;95508.09;5114177;28;1016;-56
2023/09/20 06:02:44;;;;;;;;;;;;;;;19.36;91.49;95513.78;5113999;28;1043;-55
2023/09/20 06:05:20;;;;;;;;;;;;;;;19.63;89.66;95514.63;5113865;28;1906;-56
2023/09/20 06:07:46;;;;;;;;;;;;;;;19.69;88.80;95519.19;5113302;28;1115;-55
2023/09/20 06:10:12;;;;;;;;;;;;;;;19.66;88.75;95512.31;5113792;28;1015;-55
2023/09/20 06:12:39;;;;;;;;;;;;;;;19.77;87.63;95518.19;5113900;28;984;-54
2023/09/20 06:15:07;;;;;;;;;;;;;;;19.77;87.82;95527.19;5113878;28;1014;-55
2023/09/20 06:17:33;;;;;;;;;;;;;;;20.12;86.62;95532.34;5113954;28;1132;-55
2023/09/20 06:20:07;;;;;;;;;;;;;;;20.40;85.91;95529.38;5113843;28;980;-55
2023/09/20 06:22:33;;;;;;;;;;;;;;;20.30;85.33;95531.72;5113863;28;1044;-55
2023/09/20 06:25:01;;;;;;;;;;;;;;;20.31;85.23;95529.81;5113859;28;1995;-55
2023/09/20 06:27:30;;;;;;;;;;;;;;;20.45;83.57;95528.72;5113706;28;1009;-56
2023/09/20 06:29:57;;;;;;;;;;;;;;;20.65;83.71;95529.53;5113934;28;1025;-55
2023/09/20 06:32:23;;;;;;;;;;;;;;;20.86;83.94;95524.84;5113407;28;1106;-55
2023/09/20 06:34:49;;;;;;;;;;;;;;;21.09;81.39;95528.91;5113536;28;1095;-56
2023/09/20 06:37:15;;;;;;;;;;;;;;;21.02;81.82;95523.53;5113622;28;992;-55
2023/09/20 06:39:44;;;;;;;;;;;;;;;21.26;80.45;95528.16;5113768;28;968;-56
2023/09/20 06:42:10;;;;;;;;;;;;;;;21.30;80.51;95525.00;5113493;28;1023;-56
2023/09/20 06:44:38;;;;;;;;;;;;;;;21.32;81.55;95537.34;5113283;28;1984;-56
2023/09/20 06:47:05;;;;;;;;;;;;;;;21.43;80.91;95528.47;5113330;28;1048;-56
2023/09/20 06:49:31;;;;;;;;;;;;;;;21.75;77.07;95539.38;5113282;28;1044;-56
2023/09/20 06:52:01;;;;;;;;;;;;;;;21.78;78.83;95535.38;5113701;28;984;-56
2023/09/20 06:54:28;;;;;;;;;;;;;;;22.08;77.00;95542.84;5113554;28;995;-56
2023/09/20 06:57:02;;;;;;;;;;;;;;;22.22;76.40;95547.13;5113334;28;1099;-56
2023/09/20 06:59:28;;;;;;;;;;;;;;;22.18;76.99;95535.03;5129002;28;1263;-56
2023/09/20 07:01:55;;;;;;;;;;;;;;;22.07;76.81;95536.59;5134004;27;1053;-56
2023/09/20 07:04:21;;;;;;;;;;;;;;;22.35;75.88;95541.59;5133616;27;1913;-56
2023/09/20 07:06:47;;;;;;;;;;;;;;;22.67;75.92;95549.63;5134082;27;972;-56
2023/09/20 07:09:13;;;;;;;;;;;;;;;22.85;73.49;95550.69;5133802;27;1025;-56
2023/09/20 07:11:39;;;;;;;;;;;;;;;22.89;72.97;95546.44;5133696;27;1068;-56
2023/09/20 07:14:05;;;;;;;;;;;;;;;22.90;73.75;95543.47;5133757;27;1064;-56
2023/09/20 07:16:33;;;;;;;;;;;;;;;23.04;73.69;95546.91;5133562;27;1051;-55
2023/09/20 07:19:04;;;;;;;;;;;;;;;23.16;74.23;95539.63;5133923;27;968;-55
2023/09/20 07:21:36;;;;;;;;;;;;;;;23.34;73.75;95541.44;5137411;27;1008;-55
2023/09/20 07:24:03;;;;;;;;;;;;;;;23.42;71.79;95534.81;5137619;27;1909;-55
2023/09/20 07:26:32;;;;;;;;;;;;;;;23.23;72.17;95535.94;5137248;27;1115;-55
2023/09/20 07:28:59;;;;;;;;;;;;;;;23.07;73.79;95526.50;5135994;27;1039;-56
2023/09/20 07:31:26;;;;;;;;;;;;;;;23.17;73.74;95529.53;5137562;27;1058;-56
2023/09/20 07:33:55;;;;;;;;;;;;;;;23.55;72.70;95518.25;5137336;27;1005;-55
2023/09/20 07:36:22;;;;;;;;;;;;;;;23.38;72.45;95522.72;5136980;27;1867;-55
2023/09/20 07:38:48;;;;;;;;;;;;;;;23.54;74.16;95515.75;5137332;27;1047;-56
2023/09/20 07:41:17;;;;;;;;;;;;;;;23.90;71.28;95524.88;5136932;27;1075;-56
2023/09/20 07:43:44;;;;;;;;;;;;;;;24.04;69.33;95531.78;5133768;27;2524;-56
2023/09/20 07:46:13;;;;;;;;;;;;;;;24.18;68.94;95521.44;5116503;28;1007;-56
2023/09/20 07:48:50;;;;;;;;;;;;;;;24.12;68.24;95528.69;5116324;28;1036;-56
2023/09/20 07:51:28;;;;;;;;;;;;;;;24.28;69.95;95529.03;5116300;28;1036;-56
2023/09/20 07:53:55;;;;;;;;;;;;;;;24.29;69.23;95528.81;5116200;28;973;-55
2023/09/20 07:56:21;;;;;;;;;;;;;;;24.42;70.20;95525.00;5116341;28;1009;-55
2023/09/20 07:58:47;;;;;;;;;;;;;;;24.55;69.58;95515.75;5126388;27;1256;-56
2023/09/20 08:01:20;;;;;;;;;;;;;;;24.66;68.95;95520.38;5136690;27;1052;-56
2023/09/20 08:03:50;;;;;;;;;;;;;;;24.59;69.29;95518.84;5136688;27;1909;-55
2023/09/20 08:06:17;;;;;;;;;;;;;;;24.36;70.35;95523.25;5136735;27;1123;-56
2023/09/20 08:08:43;;;;;;;;;;;;;;;24.60;69.53;95520.50;5136478;27;1044;-56
2023/09/20 08:11:09;;;;;;;;;;;;;;;24.82;69.20;95523.44;5136646;27;1051;-56
2023/09/20 08:13:35;;;;;;;;;;;;;;;25.03;67.12;95521.94;5135224;27;1028;-56
2023/09/20 08:16:02;;;;;;;;;;;;;;;25.02;67.18;95518.34;5136630;27;1027;-56
2023/09/20 08:21:13;;;;;;;;;;;;;;;24.99;67.26;95521.59;5136388;27;1043;-56
2023/09/20 09:02:15;;;;;;;;;;;;;;;25.55;64.48;95480.78;5118767;27;2465;-55
2023/09/20 09:04:45;;;;;;;;;;;;;;;25.28;64.27;95480.59;5113534;28;1911;-55
2023/09/20 09:07:11;;;;;;;;;;;;;;;25.36;64.69;95479.34;5114858;28;937;-55
2023/09/20 09:09:38;;;;;;;;;;;;;;;25.53;64.26;95472.00;5115008;28;1039;-56
2023/09/20 09:12:04;;;;;;;;;;;;;;;25.85;63.36;95471.44;5114892;28;1056;-55
2023/09/20 09:14:31;;;;;;;;;;;;;;;26.03;63.02;95476.69;5114489;28;1308;-55
2023/09/20 09:17:01;;;;;;;;;;;;;;;26.23;61.60;95475.31;5114564;28;1087;-55
2023/09/20 09:19:27;;;;;;;;;;;;;;;26.48;61.90;95470.22;5114576;28;961;-55
2023/09/20 09:21:53;;;;;;;;;;;;;;;26.49;59.99;95477.34;5130351;27;973;-55
2023/09/20 09:24:19;;;;;;;;;;;;;;;26.68;60.42;95471.56;5114231;28;1989;-56
2023/09/20 09:26:46;;;;;;;;;;;;;;;26.77;60.55;95470.06;5130254;27;1028;-56
2023/09/20 09:29:16;;;;;;;;;;;;;;;26.68;59.53;95468.84;5114271;28;1090;-55
2023/09/20 09:31:46;;;;;;;;;;;;;;;26.57;60.73;95464.28;5114323;28;1087;-55
2023/09/20 09:34:12;;;;;;;;;;;;;;;26.56;61.42;95452.47;5114702;28;964;-55
2023/09/20 09:36:40;;;;;;;;;;;;;;;26.72;61.88;95447.22;5114240;28;1036;-55
2023/09/20 09:39:09;;;;;;;;;;;;;;;26.60;59.28;95441.88;5118195;27;2428;-55
2023/09/20 09:41:42;;;;;;;;;;;;;;;26.53;57.70;95444.75;5133632;27;999;-56
2023/09/20 09:44:08;;;;;;;;;;;;;;;26.88;59.37;95440.81;5134073;27;1933;-56
2023/09/20 09:46:36;;;;;;;;;;;;;;;27.13;59.37;95428.44;5134567;27;1119;-56
2023/09/20 09:49:03;;;;;;;;;;;;;;;27.13;58.25;95425.72;5134822;27;986;-55
2023/09/20 09:51:32;;;;;;;;;;;;;;;27.20;58.30;95416.19;5134727;27;976;-55
2023/09/20 09:54:00;;;;;;;;;;;;;;;27.30;57.65;95415.50;5134746;27;1015;-55
2023/09/20 09:56:27;;;;;;;;;;;;;;;27.33;58.47;95419.63;5134352;27;1114;-55
2023/09/20 09:58:53;;;;;;;;;;;;;;;27.34;57.74;95413.88;5134481;27;1259;-55
2023/09/20 10:01:21;;;;;;;;;;;;;;;27.23;58.16;95412.09;5134379;27;1019;-55
2023/09/20 10:03:49;;;;;;;;;;;;;;;27.24;57.83;95419.22;5134345;27;1032;-55
2023/09/20 10:06:20;;;;;;;;;;;;;;;27.33;58.64;95412.22;5134124;28;1109;-55
2023/09/20 10:08:48;;;;;;;;;;;;;;;27.12;58.16;95413.09;5133499;28;981;-55
2023/09/20 10:11:14;;;;;;;;;;;;;;;27.35;55.75;95407.28;5134196;27;1075;-55
2023/09/20 10:13:41;;;;;;;;;;;;;;;27.68;55.93;95410.03;5133191;27;2540;-54
2023/09/20 10:16:10;;;;;;;;;;;;;;;27.92;56.51;95405.84;5134229;27;1018;-54
2023/09/20 10:18:52;;;;;;;;;;;;;;;28.05;54.36;95407.31;5134551;27;1014;-55
2023/09/20 10:21:22;;;;;;;;;;;;;;;28.11;54.71;95405.41;5134231;27;1003;-55
2023/09/20 10:23:48;;;;;;;;;;;;;;;28.16;55.68;95403.53;5134605;27;1040;-54
2023/09/20 10:26:18;;;;;;;;;;;;;;;28.18;55.97;95401.34;5133993;27;1968;-54
2023/09/20 10:28:45;;;;;;;;;;;;;;;28.16;56.35;95398.03;5134007;27;1133;-55
2023/09/20 10:31:15;;;;;;;;;;;;;;;28.29;54.52;95390.41;5134168;27;925;-55
2023/09/20 10:33:45;;;;;;;;;;;;;;;28.44;53.62;95385.00;5134293;27;1051;-55
2023/09/20 10:36:24;;;;;;;;;;;;;;;28.30;51.82;95381.06;5134265;27;1023;-55
2023/09/20 10:39:10;;;;;;;;;;;;;;;28.09;54.11;95374.63;5134084;27;1091;-54
2023/09/20 10:41:42;;;;;;;;;;;;;;;28.05;53.67;95374.34;5133985;27;1400;-54
2023/09/20 10:44:22;;;;;;;;;;;;;;;27.82;53.58;95367.28;5133803;27;1984;-55
2023/09/20 10:46:50;;;;;;;;;;;;;;;27.82;54.32;95370.84;5134215;28;973;-54
2023/09/20 10:49:16;;;;;;;;;;;;;;;27.98;54.73;95368.22;5134173;27;1022;-54
2023/09/20 10:51:43;;;;;;;;;;;;;;;28.11;54.11;95373.25;5134119;27;1035;-53
2023/09/20 10:54:22;;;;;;;;;;;;;;;27.96;53.75;95365.75;5135828;27;1036;-54
2023/09/20 10:56:51;;;;;;;;;;;;;;;27.68;50.83;95358.69;5138036;27;1040;-54
2023/09/20 10:59:17;;;;;;;;;;;;;;;27.58;53.41;95361.34;5137726;27;1176;-53
2023/09/20 11:01:50;;;;;;;;;;;;;;;27.43;53.34;95360.16;5137792;27;1063;-53
2023/09/20 11:04:17;;;;;;;;;;;;;;;27.38;52.83;95356.53;5137560;27;1910;-54
2023/09/20 11:06:49;;;;;;;;;;;;;;;27.31;56.04;95353.19;5137968;27;1022;-54
2023/09/20 11:09:15;;;;;;;;;;;;;;;27.20;55.06;95352.22;5137822;27;1043;-54
2023/09/20 11:11:42;;;;;;;;;;;;;;;27.18;57.26;95348.91;5137514;27;1087;-55
2023/09/20 11:14:12;;;;;;;;;;;;;;;27.29;56.00;95345.22;5137654;27;1023;-54
2023/09/20 11:16:44;;;;;;;;;;;;;;;27.64;56.06;95352.03;5137495;27;1022;-54
2023/09/20 11:19:13;;;;;;;;;;;;;;;27.92;55.12;95350.88;5137701;27;1026;-53
2023/09/20 11:21:42;;;;;;;;;;;;;;;28.15;52.91;95346.91;5137623;27;991;-54
2023/09/20 11:24:10;;;;;;;;;;;;;;;28.27;51.03;95343.94;5137422;27;1914;-54
2023/09/20 11:26:36;;;;;;;;;;;;;;;28.35;51.53;95337.09;5136931;27;2569;-54
2023/09/20 11:29:04;;;;;;;;;;;;;;;28.35;51.91;95334.34;5136719;27;2886;-54
2023/09/20 11:31:32;;;;;;;;;;;;;;;28.37;55.00;95332.97;5137328;27;961;-54
2023/09/20 11:33:59;;;;;;;;;;;;;;;28.35;54.02;95326.91;5137162;27;1032;-53
2023/09/20 11:36:26;;;;;;;;;;;;;;;28.27;52.32;95321.09;5136920;27;970;-53
2023/09/20 11:38:53;;;;;;;;;;;;;;;28.20;50.86;95318.63;5137054;27;1028;-53
2023/09/20 11:41:24;;;;;;;;;;;;;;;28.10;49.92;95321.34;5137213;27;1021;-54
2023/09/20 11:43:56;;;;;;;;;;;;;;;28.08;49.46;95318.84;5136791;27;1234;-54
2023/09/20 11:46:22;;;;;;;;;;;;;;;28.13;48.39;95316.09;5136811;27;1015;-53
2023/09/20 11:48:49;;;;;;;;;;;;;;;28.12;49.28;95311.72;5137079;27;969;-53
2023/09/20 11:51:16;;;;;;;;;;;;;;;28.13;50.72;95309.78;5136739;27;1040;-53
2023/09/20 11:53:44;;;;;;;;;;;;;;;28.10;49.66;95304.84;5136882;27;1048;-54
2023/09/20 11:56:10;;;;;;;;;;;;;;;27.95;45.26;95308.34;5136695;27;1035;-54
2023/09/20 11:58:37;;;;;;;;;;;;;;;27.91;46.35;95304.47;5136567;27;1971;-53
2023/09/20 12:01:08;;;;;;;;;;;;;;;27.65;45.87;95299.59;5136922;27;1075;-54
2023/09/20 12:03:34;;;;;;;;;;;;;;;27.73;49.35;95290.03;5135583;27;1036;-54
2023/09/20 12:06:00;;;;;;;;;;;;;;;27.88;48.93;95291.22;5135770;27;1914;-54
2023/09/20 12:08:32;;;;;;;;;;;;;;;27.88;49.43;95297.53;5136660;27;921;-54
2023/09/20 12:10:58;;;;;;;;;;;;;;;27.82;48.56;95299.44;5136715;27;1038;-54
2023/09/20 12:13:24;;;;;;;;;;;;;;;27.60;46.23;95302.34;5136186;27;1032;-53
2023/09/20 12:15:51;;;;;;;;;;;;;;;27.53;48.24;95292.69;5136569;27;1048;-53
2023/09/20 12:18:17;;;;;;;;;;;;;;;27.51;49.39;95292.94;5136489;27;1028;-53
2023/09/20 12:20:44;;;;;;;;;;;;;;;27.39;50.74;95292.28;5136244;27;1019;-54
2023/09/20 12:23:12;;;;;;;;;;;;;;;27.29;50.35;95290.31;5136305;27;995;-53
2023/09/20 12:25:39;;;;;;;;;;;;;;;27.22;51.72;95284.19;5136077;27;1917;-53
2023/09/20 12:28:05;;;;;;;;;;;;;;;27.15;50.63;95283.56;5136302;27;961;-54
2023/09/20 12:30:31;;;;;;;;;;;;;;;26.96;51.76;95274.91;5136158;27;1056;-54
2023/09/20 12:32:58;;;;;;;;;;;;;;;26.84;50.50;95278.69;5135950;27;1135;-53
2023/09/20 12:35:24;;;;;;;;;;;;;;;27.12;49.12;95279.44;5136085;27;1007;-54
2023/09/20 12:37:51;;;;;;;;;;;;;;;27.37;47.80;95275.25;5135996;27;1023;-54
2023/09/20 12:40:19;;;;;;;;;;;;;;;27.52;47.70;95271.81;5136035;27;968;-54
2023/09/20 12:42:45;;;;;;;;;;;;;;;27.48;48.21;95277.00;5135809;27;1151;-54
2023/09/20 12:45:11;;;;;;;;;;;;;;;27.60;47.02;95279.53;5135823;27;1913;-54
2023/09/20 12:47:41;;;;;;;;;;;;;;;27.75;48.35;95265.06;5135992;27;1192;-54
2023/09/20 12:50:12;;;;;;;;;;;;;;;27.67;48.81;95260.06;5135913;27;1047;-54
2023/09/20 12:52:38;;;;;;;;;;;;;;;27.73;47.33;95262.56;5125639;27;2460;-54
2023/09/20 12:55:04;;;;;;;;;;;;;;;27.91;49.93;95252.28;5114906;28;1886;-54
2023/09/20 12:57:30;;;;;;;;;;;;;;;27.98;49.16;95258.31;5114934;28;1099;-53
2023/09/20 13:00:00;;;;;;;;;;;;;;;28.01;47.79;95257.78;5135098;27;1244;-54
2023/09/20 13:02:27;;;;;;;;;;;;;;;28.01;47.88;95255.06;5135456;27;1023;-54
2023/09/20 13:04:55;;;;;;;;;;;;;;;28.02;47.66;95248.44;5135520;27;2000;-53
2023/09/20 13:07:21;;;;;;;;;;;;;;;28.01;47.71;95247.63;5135357;27;1039;-54
2023/09/20 13:09:47;;;;;;;;;;;;;;;27.93;47.49;95241.84;5135278;27;1040;-54
2023/09/20 13:12:15;;;;;;;;;;;;;;;27.95;48.60;95245.13;5135378;27;1027;-54
2023/09/20 13:14:42;;;;;;;;;;;;;;;28.01;47.43;95244.06;5135416;27;1016;-55
2023/09/20 13:17:09;;;;;;;;;;;;;;;28.07;47.67;95234.72;5134217;27;960;-55
2023/09/20 13:19:35;;;;;;;;;;;;;;;28.00;47.19;95237.75;5135221;27;968;-54
2023/09/20 13:22:01;;;;;;;;;;;;;;;27.83;47.18;95237.91;5135351;27;1006;-55
2023/09/20 13:24:27;;;;;;;;;;;;;;;27.62;47.09;95238.91;5135037;27;1914;-55
2023/09/20 13:26:53;;;;;;;;;;;;;;;27.47;48.80;95228.69;5135206;27;1063;-54
2023/09/20 13:29:19;;;;;;;;;;;;;;;27.53;49.28;95229.53;5135085;27;1031;-54
2023/09/20 13:31:47;;;;;;;;;;;;;;;27.57;48.85;95223.22;5132850;27;2608;-54
2023/09/20 13:34:15;;;;;;;;;;;;;;;27.69;48.28;95225.75;5114166;28;1028;-54
2023/09/20 13:36:44;;;;;;;;;;;;;;;27.74;47.93;95223.03;5114215;28;1075;-55
2023/09/20 13:39:10;;;;;;;;;;;;;;;27.67;46.97;95218.88;5114358;28;1040;-55